Time;durP1;ratioP1;P1;durP2;ratioP2;P2;SDS_P1;SDS_P2;PMS_P1;PMS_P2;Temp;Humidity;BMP_temperature;BMP_pressure;BME280_temperature;BME280_humidity;BME280_pressure;Samples;Min_cycle;Max_cycle;Signal;HPM_P1;HPM_P2
2023/10/25 00:00:08;;;;;;;0.50;0.50;;;;;;;9.15;100.00;95843.44;29394;216;64009;-69
2023/10/25 00:00:40;;;;;;;0.50;0.50;;;;;;;9.15;100.00;95840.72;29395;235;63009;-71
2023/10/25 00:01:11;;;;;;;0.50;0.50;;;;;;;9.15;100.00;95846.13;29395;247;63005;-60
2023/10/25 00:01:42;;;;;;;0.50;0.50;;;;;;;9.15;100.00;95838.00;29395;232;63009;-71
2023/10/25 00:02:13;;;;;;;0.50;0.50;;;;;;;9.15;100.00;95848.03;29395;239;63005;-70
2023/10/25 00:02:45;;;;;;;0.50;0.50;;;;;;;9.16;100.00;95839.63;29395;238;63009;-70
2023/10/25 00:03:16;;;;;;;0.50;0.50;;;;;;;9.16;100.00;95839.63;29395;235;63011;-70
2023/10/25 00:03:47;;;;;;;0.50;0.50;;;;;;;9.17;100.00;95837.72;29395;264;63009;-70
2023/10/25 00:04:19;;;;;;;0.50;0.50;;;;;;;9.18;100.00;95837.41;29394;227;64009;-70
2023/10/25 00:04:54;;;;;;;0.50;0.50;;;;;;;9.17;100.00;95838.50;29395;199;63009;-58
2023/10/25 00:05:32;;;;;;;0.50;0.50;;;;;;;9.16;100.00;95839.63;29395;260;63004;-70
2023/10/25 00:06:04;;;;;;;0.60;0.60;;;;;;;9.16;100.00;95839.63;29395;327;63023;-70
2023/10/25 00:06:35;;;;;;;0.50;0.50;;;;;;;9.18;100.00;95837.41;29395;237;63004;-70
2023/10/25 00:07:07;;;;;;;0.50;0.50;;;;;;;9.18;100.00;95837.41;29394;255;64013;-71
2023/10/25 00:07:39;;;;;;;0.50;0.50;;;;;;;9.18;100.00;95831.19;29395;222;63005;-70
2023/10/25 00:08:10;;;;;;;0.50;0.50;;;;;;;9.18;100.00;95831.97;29395;267;63016;-71
2023/10/25 00:08:43;;;;;;;0.50;0.50;;;;;;;9.18;100.00;95829.28;29395;231;63005;-70
2023/10/25 00:09:14;;;;;;;0.50;0.50;;;;;;;9.19;100.00;95821.97;29395;220;63009;-70
2023/10/25 00:09:45;;;;;;;0.50;0.50;;;;;;;9.19;100.00;95828.16;29394;257;64009;-70
2023/10/25 00:10:16;;;;;;;0.50;0.50;;;;;;;9.20;100.00;95821.66;29395;259;63009;-70
2023/10/25 00:10:48;;;;;;;0.50;0.50;;;;;;;9.21;100.00;95831.37;29395;220;63005;-70
2023/10/25 00:11:19;;;;;;;0.50;0.50;;;;;;;9.19;100.00;95828.16;29395;246;63009;-59
2023/10/25 00:11:50;;;;;;;0.50;0.50;;;;;;;9.20;100.00;95820.84;29395;225;63004;-70
2023/10/25 00:12:22;;;;;;;0.50;0.50;;;;;;;9.19;100.00;95822.75;29395;258;63009;-72
2023/10/25 00:12:55;;;;;;;0.50;0.50;;;;;;;9.19;100.00;95820.06;29394;197;64009;-70
2023/10/25 00:13:27;;;;;;;0.50;0.50;;;;;;;9.19;100.00;95820.06;29395;232;63009;-70
2023/10/25 00:14:01;;;;;;;0.50;0.50;;;;;;;9.19;100.00;95817.34;29395;261;63004;-70
2023/10/25 00:14:32;;;;;;;0.50;0.50;;;;;;;9.20;100.00;95818.16;29395;268;63008;-70
2023/10/25 00:15:08;;;;;;;0.50;0.50;;;;;;;9.19;100.00;95819.25;29395;306;63005;-70
2023/10/25 00:15:45;;;;;;;0.50;0.50;;;;;;;9.19;100.00;95817.34;29395;217;63016;-60
2023/10/25 00:16:17;;;;;;;0.50;0.50;;;;;;;9.19;100.00;95811.94;29395;262;63005;-71
2023/10/25 00:16:48;;;;;;;0.50;0.50;;;;;;;9.18;100.00;95810.34;29395;226;63009;-59
2023/10/25 00:17:19;;;;;;;0.50;0.50;;;;;;;9.18;100.00;95813.03;29395;220;63005;-70
2023/10/25 00:17:51;;;;;;;0.50;0.50;;;;;;;9.18;100.00;95814.94;29395;248;63009;-58
2023/10/25 00:18:24;;;;;;;0.50;0.50;;;;;;;9.17;100.00;95808.72;29394;237;64009;-70
2023/10/25 00:18:55;;;;;;;0.50;0.50;;;;;;;9.16;100.00;95817.97;29395;222;63028;-70
2023/10/25 00:19:26;;;;;;;0.50;0.50;;;;;;;9.15;100.00;95813.66;29395;221;63004;-59
2023/10/25 00:19:59;;;;;;;0.50;0.50;;;;;;;9.13;100.00;95807.75;29395;278;63009;-59
2023/10/25 00:20:32;;;;;;;0.50;0.50;;;;;;;9.12;100.00;95805.34;29395;220;63004;-58
2023/10/25 00:21:05;;;;;;;0.50;0.50;;;;;;;9.12;100.00;95806.16;29395;352;63008;-59
2023/10/25 00:21:36;;;;;;;0.50;0.50;;;;;;;9.12;100.00;95806.16;29395;204;63004;-70
2023/10/25 00:22:09;;;;;;;0.50;0.50;;;;;;;9.12;100.00;95803.44;29395;208;63008;-70
2023/10/25 00:22:40;;;;;;;0.50;0.50;;;;;;;9.11;100.00;95804.56;29395;207;63017;-71
2023/10/25 00:23:11;;;;;;;0.50;0.50;;;;;;;9.10;100.00;95802.97;29395;245;63009;-70
2023/10/25 00:23:43;;;;;;;0.50;0.50;;;;;;;9.09;100.00;95806.78;29394;217;64009;-59
2023/10/25 00:24:15;;;;;;;0.60;0.60;;;;;;;9.09;100.00;95801.37;29395;220;63009;-59
2023/10/25 00:24:46;;;;;;;0.50;0.50;;;;;;;9.07;100.00;95798.97;29395;231;63005;-59
2023/10/25 00:25:17;;;;;;;0.50;0.50;;;;;;;9.06;100.00;95802.78;29394;207;64013;-58
2023/10/25 00:25:50;;;;;;;0.50;0.50;;;;;;;9.07;100.00;95798.16;29395;205;63004;-59
2023/10/25 00:26:21;;;;;;;0.50;0.50;;;;;;;9.07;100.00;95803.56;29395;239;63009;-59
2023/10/25 00:26:52;;;;;;;0.50;0.50;;;;;;;9.06;100.00;95805.47;29395;219;63004;-59
2023/10/25 00:27:26;;;;;;;0.50;0.50;;;;;;;9.05;100.00;95800.38;29395;218;63009;-59
2023/10/25 00:27:57;;;;;;;0.60;0.60;;;;;;;9.03;100.00;95797.19;29395;245;63004;-70
2023/10/25 00:28:28;;;;;;;0.50;0.50;;;;;;;9.03;100.00;95791.78;29395;219;63008;-59
2023/10/25 00:29:00;;;;;;;0.50;0.50;;;;;;;9.02;100.00;95801.00;29394;202;64008;-69
2023/10/25 00:29:31;;;;;;;0.50;0.50;;;;;;;9.01;100.00;95797.50;29395;204;63009;-59
2023/10/25 00:30:03;;;;;;;0.50;0.50;;;;;;;9.01;100.00;95802.09;29395;224;63005;-59
2023/10/25 00:30:36;;;;;;;0.50;0.50;;;;;;;9.00;100.00;95798.63;29394;269;64014;-59
2023/10/25 00:31:08;;;;;;;0.50;0.50;;;;;;;9.00;100.00;95797.81;29395;247;63005;-70
2023/10/25 00:31:39;;;;;;;0.50;0.50;;;;;;;9.00;100.00;95801.34;29395;212;63009;-60
2023/10/25 00:32:14;;;;;;;0.50;0.50;;;;;;;8.99;100.00;95807.06;29395;253;63005;-60
2023/10/25 00:32:47;;;;;;;0.50;0.50;;;;;;;9.01;100.00;95811.00;29395;248;63013;-59
2023/10/25 00:33:18;;;;;;;0.50;0.50;;;;;;;9.00;100.00;95806.75;29395;202;63004;-70
2023/10/25 00:33:49;;;;;;;0.50;0.50;;;;;;;8.99;100.00;95807.06;29395;207;63013;-59
2023/10/25 00:34:20;;;;;;;0.50;0.50;;;;;;;8.99;100.00;95805.16;29394;230;64009;-59
2023/10/25 00:34:52;;;;;;;0.50;0.50;;;;;;;9.01;100.00;95810.22;29394;246;64013;-70
2023/10/25 00:35:26;;;;;;;0.50;0.50;;;;;;;9.01;100.00;95811.00;29395;265;63004;-60
2023/10/25 00:35:59;;;;;;;0.50;0.50;;;;;;;9.02;100.00;95814.53;29395;225;63008;-60
2023/10/25 00:36:30;;;;;;;0.50;0.50;;;;;;;9.01;100.00;95808.31;29395;246;63004;-70
2023/10/25 00:37:04;;;;;;;0.50;0.50;;;;;;;9.01;100.00;95804.81;29395;232;63023;-59
2023/10/25 00:37:35;;;;;;;0.50;0.50;;;;;;;8.99;100.00;95807.06;29395;232;63005;-59
2023/10/25 00:38:06;;;;;;;0.45;0.45;;;;;;;8.99;100.00;95801.63;29395;203;63009;-60
2023/10/25 00:38:37;;;;;;;0.50;0.50;;;;;;;9.00;100.00;95805.94;29395;309;63005;-58
2023/10/25 00:39:09;;;;;;;0.50;0.50;;;;;;;9.00;100.00;95803.22;29395;218;63009;-70
2023/10/25 00:39:41;;;;;;;0.50;0.50;;;;;;;9.00;100.00;95798.63;29394;268;64000;-70
2023/10/25 00:40:12;;;;;;;0.50;0.50;;;;;;;9.00;100.00;95798.63;29395;215;63009;-70
2023/10/25 00:40:44;;;;;;;0.50;0.50;;;;;;;9.01;100.00;95804.81;29395;214;63005;-70
2023/10/25 00:41:17;;;;;;;0.50;0.50;;;;;;;9.00;100.00;95797.81;29395;202;63009;-69
2023/10/25 00:41:50;;;;;;;0.50;0.50;;;;;;;9.00;100.00;95797.81;29395;210;63004;-70
2023/10/25 00:42:22;;;;;;;0.50;0.50;;;;;;;9.01;100.00;95799.41;29395;210;63009;-60
2023/10/25 00:43:32;;;;;;;0.50;0.50;;;;;;;9.00;100.00;95803.22;29395;263;63004;-70
2023/10/25 00:44:05;;;;;;;0.50;0.50;;;;;;;8.99;100.00;95801.63;29395;202;63008;-60
2023/10/25 00:44:36;;;;;;;0.50;0.50;;;;;;;9.00;100.00;95809.44;29394;232;64009;-59
2023/10/25 00:45:08;;;;;;;0.50;0.50;;;;;;;9.02;100.00;95806.41;29395;238;63009;-59
2023/10/25 00:46:05;;;;;;;0.50;0.50;;;;;;;9.02;100.00;95806.41;29395;268;63001;-70
2023/10/25 00:46:36;;;;;;;0.50;0.50;;;;;;;9.02;100.00;95809.09;29395;262;63014;-70
2023/10/25 00:47:08;;;;;;;0.50;0.50;;;;;;;9.02;100.00;95806.41;29395;225;63005;-59
2023/10/25 00:47:41;;;;;;;0.50;0.50;;;;;;;9.02;100.00;95809.09;29395;210;63009;-59
2023/10/25 00:48:13;;;;;;;0.50;0.50;;;;;;;9.02;100.00;95807.19;29394;207;64009;-61
2023/10/25 00:48:46;;;;;;;0.50;0.50;;;;;;;9.03;100.00;95802.59;29395;199;63014;-69
2023/10/25 00:49:18;;;;;;;1.85;1.85;;;;;;;9.03;100.00;95802.59;29395;271;63004;-60
2023/10/25 00:49:50;;;;;;;0.50;0.50;;;;;;;9.03;100.00;95808.81;29395;250;63009;-58
2023/10/25 00:50:22;;;;;;;0.50;0.50;;;;;;;9.04;100.00;95804.19;29395;245;63004;-70
2023/10/25 00:50:54;;;;;;;0.50;0.50;;;;;;;9.03;100.00;95797.19;29395;199;63008;-59
2023/10/25 00:51:27;;;;;;;0.50;0.50;;;;;;;9.03;100.00;95805.28;29394;203;64008;-59
2023/10/25 00:52:02;;;;;;;0.50;0.50;;;;;;;9.02;100.00;95801.00;29395;238;63009;-70
2023/10/25 00:52:33;;;;;;;0.50;0.50;;;;;;;9.03;100.00;95805.28;29395;247;63005;-71
2023/10/25 00:53:04;;;;;;;0.50;0.50;;;;;;;9.03;100.00;95808.00;29395;216;63009;-70
2023/10/25 00:53:40;;;;;;;0.50;0.50;;;;;;;9.02;100.00;95807.19;29395;204;63005;-59
2023/10/25 00:54:12;;;;;;;0.50;0.50;;;;;;;9.02;100.00;95807.19;29395;289;63009;-70
2023/10/25 00:54:43;;;;;;;0.50;0.50;;;;;;;9.02;100.00;95804.50;29395;210;63000;-71
2023/10/25 00:55:15;;;;;;;0.50;0.50;;;;;;;9.02;100.00;95801.00;29395;222;63009;-71
2023/10/25 00:55:48;;;;;;;0.50;0.50;;;;;;;9.02;100.00;95807.19;29395;233;63005;-71
2023/10/25 00:56:22;;;;;;;0.50;0.50;;;;;;;9.03;100.00;95805.28;29395;220;63026;-60
2023/10/25 00:56:55;;;;;;;0.50;0.50;;;;;;;9.03;100.00;95802.59;29394;237;64009;-70
2023/10/25 00:57:28;;;;;;;0.50;0.50;;;;;;;9.03;100.00;95808.00;29395;214;63009;-59
2023/10/25 00:57:59;;;;;;;0.50;0.50;;;;;;;9.03;100.00;95797.97;29395;202;63010;-70
2023/10/25 00:58:32;;;;;;;0.50;0.50;;;;;;;9.03;100.00;95802.59;29395;228;63008;-70
2023/10/25 00:59:04;;;;;;;0.50;0.50;;;;;;;9.03;100.00;95797.19;29395;244;63008;-60
2023/10/25 00:59:35;;;;;;;0.50;0.50;;;;;;;9.02;100.00;95801.78;29395;232;63009;-71
2023/10/25 01:00:08;;;;;;;0.50;0.50;;;;;;;9.03;100.00;95802.59;29394;234;64009;-70
2023/10/25 01:00:40;;;;;;;0.50;0.50;;;;;;;9.02;100.00;95803.69;29395;223;63009;-70
2023/10/25 01:01:15;;;;;;;0.50;0.50;;;;;;;9.01;100.00;95804.81;29395;223;63005;-71
2023/10/25 01:01:47;;;;;;;0.50;0.50;;;;;;;9.01;100.00;95807.50;29395;198;63009;-70
2023/10/25 01:02:19;;;;;;;0.50;0.50;;;;;;;9.01;100.00;95804.81;29395;331;63012;-59
2023/10/25 01:02:51;;;;;;;0.50;0.50;;;;;;;9.02;100.00;95806.41;29395;262;63009;-70
2023/10/25 01:03:22;;;;;;;0.50;0.50;;;;;;;9.01;100.00;95805.59;29394;236;64009;-60
2023/10/25 01:03:54;;;;;;;0.45;0.45;;;;;;;9.01;100.00;95805.59;29395;202;63009;-71
2023/10/25 01:04:28;;;;;;;0.50;0.50;;;;;;;9.02;100.00;95806.41;29395;212;63004;-70
2023/10/25 01:05:01;;;;;;;0.50;0.50;;;;;;;9.02;100.00;95806.41;29395;203;63009;-59
2023/10/25 01:05:33;;;;;;;0.50;0.50;;;;;;;9.03;100.00;95808.00;29394;211;64024;-59
2023/10/25 01:06:05;;;;;;;0.50;0.50;;;;;;;9.03;100.00;95808.00;29395;215;63004;-60
2023/10/25 01:06:36;;;;;;;0.50;0.50;;;;;;;9.02;100.00;95801.78;29395;218;63004;-59
2023/10/25 01:07:07;;;;;;;0.50;0.50;;;;;;;9.03;100.00;95808.00;29395;197;63009;-60
2023/10/25 01:07:40;;;;;;;0.50;0.50;;;;;;;9.03;100.00;95810.72;29395;262;63005;-70
2023/10/25 01:08:11;;;;;;;0.50;0.50;;;;;;;9.02;100.00;95811.81;29395;250;63009;-59
2023/10/25 01:08:43;;;;;;;0.50;0.50;;;;;;;9.02;100.00;95811.81;29394;215;64009;-71
2023/10/25 01:09:15;;;;;;;0.50;0.50;;;;;;;9.01;100.00;95812.91;29395;220;63009;-59
2023/10/25 01:09:47;;;;;;;0.50;0.50;;;;;;;9.02;100.00;95806.41;29395;251;63005;-59
2023/10/25 01:10:19;;;;;;;0.50;0.50;;;;;;;9.03;100.00;95808.00;29395;238;63009;-59
2023/10/25 01:10:51;;;;;;;0.50;0.50;;;;;;;9.03;100.00;95813.41;29395;263;63005;-58
2023/10/25 01:11:23;;;;;;;0.50;0.50;;;;;;;9.03;100.00;95806.09;29395;231;63009;-58
2023/10/25 01:11:55;;;;;;;0.50;0.50;;;;;;;9.04;100.00;95801.47;29394;248;64009;-59
2023/10/25 01:12:27;;;;;;;0.50;0.50;;;;;;;9.04;100.00;95802.28;29395;230;63009;-58
2023/10/25 01:12:59;;;;;;;0.50;0.50;;;;;;;9.04;100.00;95793.37;29395;219;63009;-70
2023/10/25 01:13:30;;;;;;;0.50;0.50;;;;;;;9.03;100.00;95791.78;29395;267;63025;-71
2023/10/25 01:14:02;;;;;;;0.52;0.52;;;;;;;9.01;100.00;95793.97;29394;199;64008;-70
2023/10/25 01:14:33;;;;;;;0.50;0.50;;;;;;;9.00;100.00;95801.34;29395;285;63009;-70
2023/10/25 01:15:05;;;;;;;0.50;0.50;;;;;;;9.00;100.00;95800.53;29395;197;63005;-59
2023/10/25 01:15:36;;;;;;;0.50;0.50;;;;;;;8.99;100.00;95799.72;29395;229;63009;-69
2023/10/25 01:16:08;;;;;;;0.50;0.50;;;;;;;9.00;100.00;95803.22;29395;252;63005;-58
2023/10/25 01:16:39;;;;;;;0.50;0.50;;;;;;;8.99;100.00;95805.16;29395;211;63009;-59
2023/10/25 01:17:10;;;;;;;0.50;0.50;;;;;;;8.99;100.00;95807.06;29395;254;63005;-70
2023/10/25 01:17:42;;;;;;;0.50;0.50;;;;;;;8.97;100.00;95804.66;29395;268;63009;-60
2023/10/25 01:18:15;;;;;;;0.50;0.50;;;;;;;8.95;100.00;95801.44;29395;313;63004;-59
2023/10/25 01:18:46;;;;;;;0.50;0.50;;;;;;;8.94;100.00;95807.16;29395;271;63009;-59
2023/10/25 01:19:17;;;;;;;0.50;0.50;;;;;;;8.94;100.00;95809.87;29394;216;64009;-68
2023/10/25 01:19:52;;;;;;;0.50;0.50;;;;;;;8.93;100.00;95802.88;29395;246;63009;-59
2023/10/25 01:20:23;;;;;;;0.50;0.50;;;;;;;8.93;100.00;95809.06;29395;241;63004;-59
2023/10/25 01:20:55;;;;;;;0.50;0.50;;;;;;;8.94;100.00;95807.16;29394;222;64013;-70
2023/10/25 01:21:27;;;;;;;0.50;0.50;;;;;;;8.94;100.00;95813.38;29395;252;63012;-61
2023/10/25 01:21:59;;;;;;;0.50;0.50;;;;;;;8.93;100.00;95810.97;29395;234;63005;-71
2023/10/25 01:22:30;;;;;;;0.50;0.50;;;;;;;8.92;100.00;95812.88;29395;207;63005;-71
2023/10/25 01:23:02;;;;;;;0.50;0.50;;;;;;;8.93;100.00;95816.41;29394;243;64013;-60
2023/10/25 01:23:33;;;;;;;0.50;0.50;;;;;;;8.93;100.00;95816.41;29395;249;63005;-59
2023/10/25 01:24:05;;;;;;;0.50;0.50;;;;;;;8.91;100.00;95815.91;29395;198;63009;-60
2023/10/25 01:24:36;;;;;;;0.50;0.50;;;;;;;8.90;100.00;95814.31;29395;271;63005;-59
2023/10/25 01:25:08;;;;;;;0.50;0.50;;;;;;;8.90;100.00;95819.72;29395;261;63009;-59
2023/10/25 01:25:42;;;;;;;0.50;0.50;;;;;;;8.89;100.00;95820.81;29395;247;63004;-59
2023/10/25 01:26:13;;;;;;;0.50;0.50;;;;;;;8.89;100.00;95823.53;29394;225;64013;-59
2023/10/25 01:26:44;;;;;;;0.50;0.50;;;;;;;8.88;100.00;95816.50;29395;236;63004;-59
2023/10/25 01:27:15;;;;;;;0.50;0.50;;;;;;;8.87;100.00;95806.81;29395;270;63009;-69
2023/10/25 01:27:50;;;;;;;0.50;0.50;;;;;;;8.89;100.00;95818.13;29395;223;63004;-59
2023/10/25 01:28:22;;;;;;;0.50;0.50;;;;;;;8.88;100.00;95816.50;29395;263;63026;-59
2023/10/25 01:28:54;;;;;;;0.50;0.50;;;;;;;8.86;100.00;95813.31;29395;247;63005;-59
2023/10/25 01:29:27;;;;;;;0.50;0.50;;;;;;;8.86;100.00;95818.72;29395;264;63009;-59
2023/10/25 01:30:01;;;;;;;0.50;0.50;;;;;;;8.87;100.00;95814.91;29395;240;63005;-59
2023/10/25 01:30:32;;;;;;;0.50;0.50;;;;;;;8.87;100.00;95814.91;29395;239;63009;-60
2023/10/25 01:31:05;;;;;;;0.50;0.50;;;;;;;8.86;100.00;95818.72;29395;204;63005;-60
2023/10/25 01:31:36;;;;;;;0.50;0.50;;;;;;;8.86;100.00;95816.81;29394;252;64013;-59
2023/10/25 01:32:08;;;;;;;0.50;0.50;;;;;;;8.87;100.00;95814.91;29395;252;63005;-69
2023/10/25 01:32:39;;;;;;;0.50;0.50;;;;;;;8.85;100.00;95812.50;29395;327;63009;-71
2023/10/25 01:33:11;;;;;;;0.50;0.50;;;;;;;8.84;100.00;95810.13;29395;341;63004;-59
2023/10/25 01:33:45;;;;;;;0.50;0.50;;;;;;;8.83;100.00;95809.31;29395;210;63009;-60
2023/10/25 01:34:18;;;;;;;0.50;0.50;;;;;;;8.82;100.00;95812.31;29394;215;64009;-61
2023/10/25 01:34:50;;;;;;;0.50;0.50;;;;;;;8.83;100.00;95809.31;29395;276;63009;-60
2023/10/25 01:35:24;;;;;;;0.93;0.93;;;;;;;8.83;100.00;95801.19;29394;252;64008;-60
2023/10/25 01:35:55;;;;;;;0.50;0.50;;;;;;;8.83;100.00;95795.78;29395;226;63008;-59
2023/10/25 01:36:27;;;;;;;0.50;0.50;;;;;;;8.83;100.00;95795.00;29395;311;63005;-70
2023/10/25 01:36:58;;;;;;;0.50;0.50;;;;;;;8.83;100.00;95792.28;29394;197;64014;-69
2023/10/25 01:37:29;;;;;;;0.50;0.50;;;;;;;8.85;100.00;95795.50;29395;267;63005;-60
2023/10/25 01:38:01;;;;;;;0.50;0.50;;;;;;;8.82;100.00;95796.09;29395;260;63009;-59
2023/10/25 01:38:33;;;;;;;0.50;0.50;;;;;;;8.80;100.00;95791.00;29395;235;63005;-70
2023/10/25 01:39:05;;;;;;;0.50;0.50;;;;;;;8.79;100.00;95796.72;29395;249;63009;-70
2023/10/25 01:39:36;;;;;;;0.50;0.50;;;;;;;8.78;100.00;95797.81;29395;212;63005;-61
2023/10/25 01:40:08;;;;;;;0.50;0.50;;;;;;;8.76;100.00;95800.03;29395;242;63014;-59
2023/10/25 01:40:40;;;;;;;0.50;0.50;;;;;;;8.74;100.00;95801.13;29395;247;63004;-58
2023/10/25 01:41:21;;;;;;;0.50;0.50;;;;;;;8.73;100.00;95799.53;29394;254;64013;-70
2023/10/25 01:41:52;;;;;;;0.60;0.60;;;;;;;8.72;100.00;95802.53;29416;256;64009;-71
2023/10/25 01:42:25;;;;;;;0.50;0.50;;;;;;;8.70;100.00;95808.25;29395;213;63009;-71
2023/10/25 01:42:56;;;;;;;0.50;0.50;;;;;;;8.68;100.00;95807.78;29395;333;63004;-72
2023/10/25 01:43:28;;;;;;;0.50;0.50;;;;;;;8.64;100.00;95801.41;29395;201;63018;-70
2023/10/25 01:44:00;;;;;;;0.50;0.50;;;;;;;8.62;100.00;95803.59;29395;200;63005;-58
2023/10/25 01:44:32;;;;;;;0.50;0.50;;;;;;;8.62;100.00;95808.22;29395;248;63009;-69
2023/10/25 01:45:04;;;;;;;0.50;0.50;;;;;;;8.61;100.00;95802.00;29394;202;64009;-61
2023/10/25 01:45:38;;;;;;;0.50;0.50;;;;;;;8.60;100.00;95811.22;29395;203;63005;-70
2023/10/25 01:46:10;;;;;;;0.50;0.50;;;;;;;8.60;100.00;95805.81;29394;202;64009;-69
2023/10/25 01:46:50;;;;;;;0.50;0.50;;;;;;;8.58;100.00;95812.62;29395;226;63009;-59
2023/10/25 01:47:25;;;;;;;0.50;0.50;;;;;;;8.57;100.00;95801.03;29395;247;63005;-60
2023/10/25 01:47:56;;;;;;;0.50;0.50;;;;;;;8.56;100.00;95804.81;29394;217;64013;-58
2023/10/25 01:48:28;;;;;;;0.50;0.50;;;;;;;8.54;100.00;95812.44;29395;206;63004;-58
2023/10/25 01:48:59;;;;;;;0.50;0.50;;;;;;;8.54;100.00;95809.75;29395;286;63009;-58
2023/10/25 01:49:31;;;;;;;0.50;0.50;;;;;;;8.55;100.00;95807.84;29395;498;63004;-60
2023/10/25 01:50:02;;;;;;;0.50;0.50;;;;;;;8.55;100.00;95808.63;29395;196;63009;-70
2023/10/25 01:50:33;;;;;;;0.50;0.50;;;;;;;8.56;100.00;95812.12;29395;260;63004;-70
2023/10/25 01:51:06;;;;;;;0.50;0.50;;;;;;;8.56;100.00;95804.81;29395;232;63008;-70
2023/10/25 01:51:37;;;;;;;0.50;0.50;;;;;;;8.56;100.00;95807.53;29395;373;63010;-70
2023/10/25 01:52:08;;;;;;;0.50;0.50;;;;;;;8.57;100.00;95811.84;29395;358;63009;-70
2023/10/25 01:52:39;;;;;;;0.50;0.50;;;;;;;8.58;100.00;95801.81;29395;440;63005;-70
2023/10/25 01:53:11;;;;;;;0.50;0.50;;;;;;;8.59;100.00;95809.63;29394;199;64013;-59
2023/10/25 01:53:42;;;;;;;0.50;0.50;;;;;;;8.60;100.00;95805.81;29395;505;63005;-59
2023/10/25 01:54:15;;;;;;;0.50;0.50;;;;;;;8.60;100.00;95805.81;29395;298;63009;-60
2023/10/25 01:54:50;;;;;;;0.50;0.50;;;;;;;8.59;100.00;95800.72;29395;216;63005;-70
2023/10/25 01:55:21;;;;;;;0.50;0.50;;;;;;;8.60;100.00;95800.41;29395;243;63009;-60
2023/10/25 01:55:53;;;;;;;0.50;0.50;;;;;;;8.59;100.00;95804.22;29395;326;63004;-59
2023/10/25 01:56:24;;;;;;;0.50;0.50;;;;;;;8.58;100.00;95791.81;29395;228;63009;-70
2023/10/25 01:56:55;;;;;;;0.50;0.50;;;;;;;8.59;100.00;95798.81;29395;340;63004;-70
2023/10/25 01:57:26;;;;;;;0.50;0.50;;;;;;;8.60;100.00;95796.91;29395;196;63009;-70
2023/10/25 01:57:58;;;;;;;0.50;0.50;;;;;;;8.61;100.00;95807.41;29394;261;64008;-70
2023/10/25 01:58:29;;;;;;;0.50;0.50;;;;;;;8.63;100.00;95799.81;29395;345;63008;-71
2023/10/25 01:59:00;;;;;;;0.50;0.50;;;;;;;8.64;100.00;95796.00;29395;259;63018;-70
2023/10/25 01:59:31;;;;;;;0.50;0.50;;;;;;;8.63;100.00;95794.41;29395;252;63017;-70
2023/10/25 02:00:06;;;;;;;0.50;0.50;;;;;;;8.62;100.00;95798.19;29395;233;63005;-70
2023/10/25 02:00:40;;;;;;;0.50;0.50;;;;;;;8.61;100.00;95802.00;29395;234;63009;-69
2023/10/25 02:01:11;;;;;;;0.50;0.50;;;;;;;8.59;100.00;95803.41;29395;237;63005;-61
2023/10/25 02:01:43;;;;;;;0.50;0.50;;;;;;;8.57;100.00;95795.63;29395;257;63009;-59
2023/10/25 02:02:17;;;;;;;0.50;0.50;;;;;;;8.55;100.00;95802.44;29395;205;63004;-59
2023/10/25 02:02:49;;;;;;;0.50;0.50;;;;;;;8.55;100.00;95805.12;29395;301;63009;-70
2023/10/25 02:03:20;;;;;;;0.50;0.50;;;;;;;8.55;100.00;95803.22;29394;352;64009;-60
2023/10/25 02:03:51;;;;;;;0.50;0.50;;;;;;;8.55;100.00;95803.22;29395;438;63009;-60
2023/10/25 02:04:23;;;;;;;0.50;0.50;;;;;;;8.54;100.00;95796.22;29395;353;63004;-70
2023/10/25 02:04:55;;;;;;;0.50;0.50;;;;;;;8.54;100.00;95801.63;29395;247;63008;-60
2023/10/25 02:05:27;;;;;;;0.50;0.50;;;;;;;8.53;100.00;95805.44;29395;228;63004;-60
2023/10/25 02:05:58;;;;;;;0.50;0.50;;;;;;;8.53;100.00;95800.03;29395;423;63018;-70
2023/10/25 02:06:30;;;;;;;0.50;0.50;;;;;;;8.53;100.00;95802.72;29395;228;63005;-69
2023/10/25 02:07:02;;;;;;;0.50;0.50;;;;;;;8.52;100.00;95801.13;29395;237;63009;-71
2023/10/25 02:07:34;;;;;;;0.50;0.50;;;;;;;8.54;100.00;95804.34;29395;198;63005;-71
2023/10/25 02:08:06;;;;;;;0.50;0.50;;;;;;;8.55;100.00;95797.81;29395;217;63009;-71
2023/10/25 02:08:38;;;;;;;0.50;0.50;;;;;;;8.58;100.00;95808.03;29394;294;64009;-70
2023/10/25 02:09:09;;;;;;;0.50;0.50;;;;;;;8.58;100.00;95802.63;29395;228;63009;-69
2023/10/25 02:09:40;;;;;;;0.50;0.50;;;;;;;8.59;100.00;95803.41;29395;212;63003;-70
2023/10/25 02:10:11;;;;;;;0.50;0.50;;;;;;;8.59;100.00;95804.22;29395;228;63014;-70
2023/10/25 02:10:43;;;;;;;0.50;0.50;;;;;;;8.60;100.00;95800.41;29395;440;63004;-70
2023/10/25 02:11:15;;;;;;;0.50;0.50;;;;;;;8.58;100.00;95802.63;29395;220;63009;-59
2023/10/25 02:11:49;;;;;;;0.50;0.50;;;;;;;8.58;100.00;95808.03;29395;248;63004;-59
2023/10/25 02:12:21;;;;;;;0.50;0.50;;;;;;;8.61;100.00;95807.41;29395;203;63008;-59
2023/10/25 02:12:52;;;;;;;0.50;0.50;;;;;;;8.61;100.00;95796.59;29395;198;63004;-70
2023/10/25 02:13:24;;;;;;;0.50;0.50;;;;;;;8.62;100.00;95800.91;29395;223;63009;-70
2023/10/25 02:13:57;;;;;;;0.50;0.50;;;;;;;8.61;100.00;95799.31;29394;218;64009;-69
2023/10/25 02:14:29;;;;;;;0.50;0.50;;;;;;;8.60;100.00;95799.63;29395;247;63026;-69
2023/10/25 02:15:00;;;;;;;0.50;0.50;;;;;;;8.59;100.00;95804.22;29395;318;63005;-69
2023/10/25 02:15:31;;;;;;;0.50;0.50;;;;;;;8.59;100.00;95793.41;29395;220;63009;-69
2023/10/25 02:16:18;;;;;;;0.50;0.50;;;;;;;8.58;100.00;95797.22;29395;206;63005;-60
2023/10/25 02:16:50;;;;;;;0.50;0.50;;;;;;;8.59;100.00;95793.41;29395;246;63005;-59
2023/10/25 02:17:22;;;;;;;0.50;0.50;;;;;;;8.60;100.00;95797.72;29395;225;63011;-59
2023/10/25 02:17:54;;;;;;;0.50;0.50;;;;;;;8.59;100.00;95788.00;29394;248;64013;-70
2023/10/25 02:18:25;;;;;;;0.50;0.50;;;;;;;8.59;100.00;95788.00;29395;248;63016;-59
2023/10/25 02:18:56;;;;;;;0.50;0.50;;;;;;;8.60;100.00;95792.28;29394;246;64013;-69
2023/10/25 02:19:27;;;;;;;0.50;0.50;;;;;;;8.59;100.00;95796.09;29395;198;63004;-70
2023/10/25 02:19:58;;;;;;;0.50;0.50;;;;;;;8.60;100.00;95794.22;29395;211;63017;-60
2023/10/25 02:20:30;;;;;;;0.50;0.50;;;;;;;8.60;100.00;95788.78;29395;235;63008;-70
2023/10/25 02:21:01;;;;;;;0.50;0.50;;;;;;;8.60;100.00;95789.59;29395;212;63009;-70
2023/10/25 02:21:35;;;;;;;0.50;0.50;;;;;;;8.61;100.00;95788.50;29395;212;63005;-70
2023/10/25 02:22:10;;;;;;;0.50;0.50;;;;;;;8.62;100.00;95792.78;29395;293;63009;-60
2023/10/25 02:22:41;;;;;;;0.50;0.50;;;;;;;8.61;100.00;95791.19;29395;219;63005;-70
2023/10/25 02:23:12;;;;;;;0.50;0.50;;;;;;;8.61;100.00;95788.50;29395;220;63009;-69
2023/10/25 02:23:44;;;;;;;0.50;0.50;;;;;;;8.60;100.00;95789.59;29395;253;63005;-60
2023/10/25 02:24:15;;;;;;;0.50;0.50;;;;;;;8.61;100.00;95783.09;29394;205;64013;-70
2023/10/25 02:24:47;;;;;;;0.50;0.50;;;;;;;8.61;100.00;95785.78;29395;263;63004;-59
2023/10/25 02:25:18;;;;;;;0.50;0.50;;;;;;;8.62;100.00;95784.69;29395;256;63009;-71
2023/10/25 02:25:49;;;;;;;0.50;0.50;;;;;;;8.63;100.00;95772.75;29395;218;63004;-59
2023/10/25 02:26:21;;;;;;;0.50;0.50;;;;;;;8.64;100.00;95785.19;29395;243;63009;-70
2023/10/25 02:26:52;;;;;;;0.50;0.50;;;;;;;8.65;100.00;95775.16;29395;228;63008;-60
2023/10/25 02:27:23;;;;;;;0.50;0.50;;;;;;;8.65;100.00;95775.16;29395;479;63008;-70
2023/10/25 02:27:54;;;;;;;0.50;0.50;;;;;;;8.65;100.00;95775.97;29395;231;63010;-70
2023/10/25 02:28:25;;;;;;;0.50;0.50;;;;;;;8.63;100.00;95772.75;29395;226;63009;-69
2023/10/25 02:28:57;;;;;;;0.50;0.50;;;;;;;8.62;100.00;95773.88;29395;198;63005;-70
2023/10/25 02:29:31;;;;;;;0.50;0.50;;;;;;;8.61;100.00;95774.97;29394;434;64014;-59
2023/10/25 02:30:04;;;;;;;0.50;0.50;;;;;;;8.59;100.00;95771.78;29395;241;63005;-58
2023/10/25 02:30:36;;;;;;;0.50;0.50;;;;;;;8.60;100.00;95777.97;29395;331;63009;-69
2023/10/25 02:31:07;;;;;;;0.50;0.50;;;;;;;8.60;100.00;95773.38;29395;202;63005;-70
2023/10/25 02:31:38;;;;;;;0.50;0.50;;;;;;;8.59;100.00;95771.78;29395;219;63009;-70
2023/10/25 02:32:10;;;;;;;0.50;0.50;;;;;;;8.58;100.00;95772.88;29395;309;63005;-69
2023/10/25 02:32:41;;;;;;;0.50;0.50;;;;;;;8.56;100.00;95772.38;29394;202;64009;-70
2023/10/25 02:33:13;;;;;;;0.50;0.50;;;;;;;8.59;100.00;95777.19;29395;257;63004;-70
2023/10/25 02:33:45;;;;;;;0.50;0.50;;;;;;;8.60;100.00;95772.56;29395;218;63009;-59